createdAt,value
2019-05-01T00:02:10.014Z,19.70
2019-05-01T00:04:47.194Z,22.53
2019-05-01T00:07:27.529Z,23.17
2019-05-01T00:09:56.889Z,21.97
2019-05-01T00:12:26.434Z,21.73
2019-05-01T00:14:55.829Z,21.23
2019-05-01T00:17:27.774Z,21.90
2019-05-01T00:19:56.624Z,21.37
2019-05-01T00:22:26.105Z,23.43
2019-05-01T00:24:55.478Z,23.77
2019-05-01T00:27:24.958Z,20.87
2019-05-01T00:29:54.355Z,22.90
2019-05-01T00:32:23.727Z,27.23
2019-05-01T00:34:53.095Z,26.57
2019-05-01T00:37:22.475Z,24.70
2019-05-01T00:39:51.912Z,27.23
2019-05-01T00:42:21.321Z,31.77
2019-05-01T00:44:50.700Z,26.63
2019-05-01T00:47:20.057Z,27.30
2019-05-01T00:49:49.428Z,25.47
2019-05-01T00:52:18.815Z,31.03
2019-05-01T00:54:49.911Z,30.13
2019-05-01T00:57:27.251Z,25.33
2019-05-01T01:00:10.195Z,28.03
2019-05-01T01:02:42.224Z,31.73
2019-05-01T01:05:11.634Z,28.73
2019-05-01T01:07:41.114Z,31.30
2019-05-01T01:10:10.605Z,25.67
2019-05-01T01:12:40.069Z,24.43
2019-05-01T01:15:09.415Z,23.20
2019-05-01T01:17:38.825Z,26.87
2019-05-01T01:20:08.248Z,23.63
2019-05-01T01:22:37.684Z,25.40
2019-05-01T01:25:07.573Z,22.20
2019-05-01T01:27:37.109Z,26.03
2019-05-01T01:30:07.569Z,26.53
2019-05-01T01:32:37.010Z,24.63
2019-05-01T01:35:06.756Z,27.37
2019-05-01T01:37:36.095Z,24.67
2019-05-01T01:40:06.346Z,27.17
2019-05-01T01:42:36.453Z,23.37
2019-05-01T01:45:30.739Z,28.00
2019-05-01T01:48:16.619Z,23.43
2019-05-01T01:50:46.547Z,22.77
2019-05-01T01:53:18.318Z,23.40
2019-05-01T01:55:47.919Z,22.97
2019-05-01T01:58:17.706Z,24.43
2019-05-01T02:01:09.196Z,19.77
2019-05-01T02:03:36.663Z,25.87
2019-05-01T02:06:06.090Z,23.03
2019-05-01T02:08:35.517Z,19.13
2019-05-01T02:11:04.934Z,23.40
2019-05-01T02:13:34.349Z,20.60
2019-05-01T02:16:03.710Z,20.40
2019-05-01T02:18:33.125Z,24.43
2019-05-01T02:21:02.584Z,20.37
2019-05-01T02:23:31.936Z,22.23
2019-05-01T02:26:01.439Z,20.90
2019-05-01T02:28:41.681Z,19.07
2019-05-01T02:31:27.851Z,20.83
2019-05-01T02:33:57.285Z,22.87
2019-05-01T02:36:28.011Z,23.37
2019-05-01T02:38:57.882Z,19.90
2019-05-01T02:41:32.482Z,19.33
2019-05-01T02:44:08.173Z,21.00
2019-05-01T02:46:38.070Z,21.63
2019-05-01T02:49:11.085Z,20.57
2019-05-01T02:51:41.621Z,23.53
2019-05-01T02:54:12.280Z,19.17
2019-05-01T02:56:54.585Z,17.83
2019-05-01T02:59:25.245Z,19.77
2019-05-01T03:01:55.586Z,23.60
2019-05-01T03:04:25.257Z,28.10
2019-05-01T03:06:54.927Z,21.60
2019-05-01T03:09:24.703Z,21.93
2019-05-01T03:11:55.274Z,20.23
2019-05-01T03:14:26.920Z,20.87
2019-05-01T03:16:58.723Z,22.60
2019-05-01T03:19:46.380Z,21.30
2019-05-01T03:22:29.188Z,20.73
2019-05-01T03:24:59.167Z,17.47
2019-05-01T03:27:28.848Z,18.73
2019-05-01T03:29:58.408Z,18.80
2019-05-01T03:32:27.996Z,19.77
2019-05-01T03:34:57.557Z,22.00
2019-05-01T03:37:27.119Z,23.50
2019-05-01T03:39:56.681Z,19.77
2019-05-01T03:42:26.262Z,21.37
2019-05-01T03:44:55.830Z,20.43
2019-05-01T03:47:25.409Z,20.80
2019-05-01T03:49:54.971Z,17.90
2019-05-01T03:52:24.542Z,18.43
2019-05-01T03:54:54.226Z,21.77
2019-05-01T03:57:24.202Z,20.87
2019-05-01T03:59:53.891Z,21.40
2019-05-01T04:02:44.009Z,19.67
2019-05-01T04:05:13.570Z,18.37
2019-05-01T04:07:43.252Z,19.33
2019-05-01T04:10:12.939Z,20.53
2019-05-01T04:12:43.023Z,21.17
2019-05-01T04:15:12.887Z,21.23
2019-05-01T04:17:50.280Z,19.83
2019-05-01T04:20:19.914Z,20.83
2019-05-01T04:22:49.775Z,22.80
2019-05-01T04:25:19.377Z,25.77
2019-05-01T04:27:50.737Z,23.00
2019-05-01T04:30:39.401Z,21.27
2019-05-01T04:33:11.681Z,20.80
2019-05-01T04:36:12.750Z,20.87
2019-05-01T04:38:42.676Z,22.57
2019-05-01T04:41:12.454Z,22.20
2019-05-01T04:43:42.009Z,20.83
2019-05-01T04:46:11.586Z,24.47
2019-05-01T04:48:41.200Z,23.10
2019-05-01T04:51:10.715Z,22.23
2019-05-01T04:53:40.400Z,22.73
2019-05-01T04:56:09.987Z,21.13
2019-05-01T04:58:39.589Z,24.07
2019-05-01T05:01:09.361Z,25.03
2019-05-01T05:03:38.927Z,22.93
2019-05-01T05:06:08.982Z,25.80
2019-05-01T05:08:38.535Z,23.67
2019-05-01T05:11:13.399Z,22.73
2019-05-01T05:14:02.143Z,21.33
2019-05-01T05:16:46.564Z,27.47
2019-05-01T05:19:16.256Z,32.03
2019-05-01T05:21:45.820Z,27.40
2019-05-01T05:24:15.419Z,32.80
2019-05-01T05:26:45.110Z,32.13
2019-05-01T05:29:15.702Z,29.40
2019-05-01T05:31:46.151Z,31.60
2019-05-01T05:34:18.235Z,32.97
2019-05-01T05:36:49.920Z,31.20
2019-05-01T05:39:28.686Z,27.27
2019-05-01T05:41:58.752Z,28.97
2019-05-01T05:44:28.622Z,31.17
2019-05-01T05:46:58.196Z,29.10
2019-05-01T05:49:27.986Z,31.20
2019-05-01T05:52:06.662Z,30.87
2019-05-01T05:54:43.122Z,31.27
2019-05-01T05:57:20.001Z,32.73
2019-05-01T06:00:11.220Z,36.93
2019-05-01T06:02:52.788Z,31.57
2019-05-01T06:05:43.575Z,35.67
2019-05-01T06:08:19.549Z,31.17
2019-05-01T06:11:09.200Z,34.67
2019-05-01T06:13:58.917Z,31.93
2019-05-01T06:16:36.072Z,29.30
2019-05-01T06:19:22.849Z,27.73
2019-05-01T06:22:11.606Z,29.03
2019-05-01T06:24:44.703Z,29.63
2019-05-01T06:27:15.087Z,26.03
2019-05-01T06:29:45.039Z,26.33
2019-05-01T06:32:14.639Z,26.07
2019-05-01T06:34:44.529Z,26.77
2019-05-01T06:37:14.088Z,29.37
2019-05-01T06:39:48.145Z,26.37
2019-05-01T06:42:16.916Z,27.00
2019-05-01T06:44:51.960Z,28.47
2019-05-01T06:47:38.135Z,28.20
2019-05-01T06:50:14.985Z,24.90
2019-05-01T06:52:44.697Z,28.27
2019-05-01T06:55:14.476Z,26.00
2019-05-01T06:57:45.660Z,22.87
2019-05-01T07:00:17.420Z,21.67
2019-05-01T07:02:48.129Z,22.93
2019-05-01T07:05:17.739Z,22.27
2019-05-01T07:07:48.250Z,21.93
2019-05-01T07:10:29.798Z,28.37
2019-05-01T07:12:50.152Z,23.10
2019-05-01T07:15:21.843Z,20.73
2019-05-01T07:17:51.275Z,19.43
2019-05-01T07:20:47.419Z,24.83
2019-05-01T07:23:18.701Z,21.70
2019-05-01T07:25:48.544Z,16.97
2019-05-01T07:28:18.218Z,16.43
2019-05-01T07:30:55.113Z,17.77
2019-05-01T07:33:25.837Z,20.47
2019-05-01T07:35:55.566Z,17.83
2019-05-01T07:38:25.099Z,18.73
2019-05-01T07:40:58.817Z,20.27
2019-05-01T07:43:33.341Z,24.20
2019-05-01T07:46:18.449Z,18.03
2019-05-01T07:48:46.729Z,17.80
2019-05-01T07:51:16.405Z,20.03
2019-05-01T07:53:46.419Z,20.07
2019-05-01T07:56:17.228Z,19.70
2019-05-01T07:58:47.477Z,22.50
2019-05-01T08:01:54.526Z,23.53
2019-05-01T08:04:35.791Z,20.90
2019-05-01T08:06:57.073Z,20.87
2019-05-01T08:09:26.672Z,21.37
2019-05-01T08:11:56.307Z,21.80
2019-05-01T08:14:25.870Z,24.47
2019-05-01T08:16:55.516Z,25.67
2019-05-01T08:19:34.687Z,22.83
2019-05-01T08:22:14.324Z,25.97
2019-05-01T08:24:44.076Z,23.83
2019-05-01T08:27:58.154Z,28.03
2019-05-01T08:30:38.695Z,26.47
2019-05-01T08:33:33.339Z,23.50
2019-05-01T08:36:06.787Z,24.67
2019-05-01T08:38:35.443Z,22.80
2019-05-01T08:41:05.117Z,22.47
2019-05-01T08:43:36.032Z,23.03
2019-05-01T08:46:24.938Z,23.43
2019-05-01T08:49:22.944Z,28.20
2019-05-01T08:51:52.630Z,26.10
2019-05-01T08:54:22.281Z,22.47
2019-05-01T08:56:52.936Z,24.93
2019-05-01T08:59:25.649Z,26.27
2019-05-01T09:02:08.419Z,25.10
2019-05-01T09:04:30.317Z,29.03
2019-05-01T09:06:57.769Z,25.77
2019-05-01T09:09:27.507Z,28.13
2019-05-01T09:11:57.201Z,24.40
2019-05-01T09:14:29.935Z,21.70
2019-05-01T09:16:57.642Z,21.63
2019-05-01T09:19:27.072Z,20.83
2019-05-01T09:21:56.432Z,20.97
2019-05-01T09:24:27.989Z,21.17
2019-05-01T09:27:29.482Z,14.80
2019-05-01T09:29:59.991Z,20.93
2019-05-01T09:32:29.332Z,17.53
2019-05-01T09:34:58.782Z,20.13
2019-05-01T09:37:28.563Z,17.77
2019-05-01T09:39:58.027Z,16.97
2019-05-01T09:42:27.454Z,19.03
2019-05-01T09:44:56.857Z,17.97
2019-05-01T09:47:26.850Z,19.03
2019-05-01T09:49:56.320Z,17.07
2019-05-01T09:53:03.247Z,18.17
2019-05-01T09:55:39.889Z,17.70
2019-05-01T09:58:09.247Z,17.77
2019-05-01T10:00:38.763Z,19.63
2019-05-01T10:03:08.209Z,19.03
2019-05-01T10:05:37.953Z,17.70
2019-05-01T10:08:08.612Z,19.67
2019-05-01T10:10:38.043Z,18.97
2019-05-01T10:13:07.804Z,20.47
2019-05-01T10:15:37.174Z,24.90
2019-05-01T10:18:06.601Z,18.73
2019-05-01T10:20:36.000Z,18.87
2019-05-01T10:23:07.762Z,21.60
2019-05-01T10:25:42.912Z,17.07
2019-05-01T10:28:17.790Z,18.83
2019-05-01T10:30:58.090Z,17.93
2019-05-01T10:33:28.967Z,18.33
2019-05-01T10:36:18.810Z,18.37
2019-05-01T10:38:48.070Z,16.57
2019-05-01T10:41:17.433Z,16.83
2019-05-01T10:43:46.904Z,15.83
2019-05-01T10:46:16.321Z,17.17
2019-05-01T10:48:45.694Z,17.27
2019-05-01T10:51:15.063Z,16.97
2019-05-01T10:53:44.425Z,15.70
2019-05-01T10:56:13.858Z,16.97
2019-05-01T10:58:43.308Z,12.40
2019-05-01T11:01:21.343Z,16.47
2019-05-01T11:03:50.701Z,15.27
2019-05-01T11:06:20.154Z,18.20
2019-05-01T11:08:49.523Z,17.10
2019-05-01T11:11:18.867Z,16.30
2019-05-01T11:13:49.322Z,19.30
2019-05-01T11:16:18.674Z,15.73
2019-05-01T11:18:48.042Z,14.17
2019-05-01T11:21:17.398Z,14.33
2019-05-01T11:23:46.790Z,15.40
2019-05-01T11:26:16.138Z,15.70
2019-05-01T11:28:45.507Z,12.23
2019-05-01T11:31:17.238Z,15.00
2019-05-01T11:34:20.457Z,13.90
2019-05-01T11:37:07.614Z,15.57
2019-05-01T11:39:49.571Z,13.53
2019-05-01T11:42:19.008Z,17.00
2019-05-01T11:44:48.363Z,13.73
2019-05-01T11:47:17.692Z,11.50
2019-05-01T11:49:47.034Z,11.20
2019-05-01T11:52:16.442Z,11.97
2019-05-01T11:54:45.797Z,17.27
2019-05-01T11:57:15.159Z,12.30
2019-05-01T11:59:44.536Z,17.77
2019-05-01T12:02:13.932Z,17.47
2019-05-01T12:04:43.294Z,16.23
2019-05-01T12:07:12.656Z,13.60
2019-05-01T12:09:42.098Z,11.83
2019-05-01T12:12:13.895Z,12.17
2019-05-01T12:14:43.258Z,13.83
2019-05-01T12:17:26.939Z,12.37
2019-05-01T12:19:56.324Z,13.30
2019-05-01T12:22:25.689Z,15.40
2019-05-01T12:24:55.056Z,15.37
2019-05-01T12:27:24.398Z,14.60
2019-05-01T12:29:53.813Z,12.90
2019-05-01T12:32:23.231Z,12.73
2019-05-01T12:34:52.576Z,11.53
2019-05-01T12:37:31.577Z,10.87
2019-05-01T12:40:00.933Z,12.63
2019-05-01T12:42:31.133Z,12.97
2019-05-01T12:45:00.529Z,16.17
2019-05-01T12:47:39.854Z,13.67
2019-05-01T12:50:09.732Z,11.60
2019-05-01T12:53:07.077Z,12.43
2019-05-01T12:55:55.549Z,9.77
2019-05-01T12:58:24.886Z,12.07
2019-05-01T13:00:55.006Z,12.00
2019-05-01T13:03:24.483Z,14.20
2019-05-01T13:05:53.838Z,13.27
2019-05-01T13:08:23.202Z,12.30
2019-05-01T13:10:52.702Z,11.17
2019-05-01T13:13:22.245Z,13.00
2019-05-01T13:15:51.591Z,12.37
2019-05-01T13:18:21.021Z,11.07
2019-05-01T13:20:50.360Z,10.80
2019-05-01T13:23:19.721Z,19.13
2019-05-01T13:25:50.262Z,11.60
2019-05-01T13:28:35.859Z,16.27
2019-05-01T13:31:33.647Z,13.43
2019-05-01T13:34:03.068Z,11.60
2019-05-01T13:36:32.414Z,11.57
2019-05-01T13:39:01.795Z,13.17
2019-05-01T13:41:31.212Z,16.90
2019-05-01T13:44:00.563Z,17.10
2019-05-01T13:46:30.018Z,14.33
2019-05-01T13:48:59.522Z,11.73
2019-05-01T13:51:28.934Z,14.27
2019-05-01T13:53:58.301Z,14.63
2019-05-01T13:56:27.635Z,12.80
2019-05-01T13:58:57.056Z,13.40
2019-05-01T14:01:26.791Z,12.03
2019-05-01T14:03:56.140Z,13.60
2019-05-01T14:06:25.555Z,13.40
2019-05-01T14:08:54.922Z,13.33
2019-05-01T14:11:24.274Z,11.37
2019-05-01T14:13:53.669Z,12.50
2019-05-01T14:16:23.115Z,11.13
2019-05-01T14:18:52.568Z,11.83
2019-05-01T14:21:33.157Z,12.13
2019-05-01T14:24:20.560Z,10.67
2019-05-01T14:26:49.909Z,14.90
2019-05-01T14:29:19.273Z,18.57
2019-05-01T14:31:48.678Z,11.63
2019-05-01T14:34:18.020Z,10.43
2019-05-01T14:36:47.374Z,12.40
2019-05-01T14:39:16.807Z,11.60
2019-05-01T14:41:46.139Z,12.23
2019-05-01T14:44:15.526Z,11.47
2019-05-01T14:46:44.868Z,10.80
2019-05-01T14:49:14.313Z,12.57
2019-05-01T14:51:43.691Z,14.50
2019-05-01T14:54:13.101Z,9.87
2019-05-01T14:56:43.420Z,12.57
2019-05-01T14:59:13.021Z,11.03
2019-05-01T15:01:42.444Z,13.23
2019-05-01T15:04:11.887Z,13.30
2019-05-01T15:06:41.363Z,16.73
2019-05-01T15:09:10.991Z,11.60
2019-05-01T15:11:41.718Z,14.67
2019-05-01T15:14:28.686Z,12.03
2019-05-01T15:17:17.438Z,11.70
2019-05-01T15:19:55.184Z,12.13
2019-05-01T15:22:24.822Z,13.20
2019-05-01T15:24:54.248Z,12.67
2019-05-01T15:27:24.080Z,9.73
2019-05-01T15:29:53.597Z,9.70
2019-05-01T15:32:23.197Z,10.27
2019-05-01T15:34:52.740Z,10.50
2019-05-01T15:37:22.298Z,14.37
2019-05-01T15:39:59.415Z,10.50
2019-05-01T15:42:42.663Z,12.97
2019-05-01T15:45:12.874Z,10.57
2019-05-01T15:47:42.385Z,11.07
2019-05-01T15:50:11.988Z,9.10
2019-05-01T15:52:41.477Z,10.93
2019-05-01T15:55:11.217Z,11.47
2019-05-01T15:57:40.686Z,9.63
2019-05-01T16:00:12.111Z,10.17
2019-05-01T16:02:41.525Z,11.10
2019-05-01T16:05:11.117Z,13.33
2019-05-01T16:07:42.231Z,13.27
2019-05-01T16:10:14.128Z,15.00
2019-05-01T16:13:02.492Z,18.17
2019-05-01T16:15:33.607Z,20.07
2019-05-01T16:18:03.683Z,17.27
2019-05-01T16:20:33.212Z,16.67
2019-05-01T16:23:02.740Z,17.80
2019-05-01T16:25:32.311Z,23.73
2019-05-01T16:28:01.840Z,22.13
2019-05-01T16:30:31.317Z,20.50
2019-05-01T16:33:00.829Z,15.53
2019-05-01T16:35:30.381Z,13.30
2019-05-01T16:38:02.011Z,17.83
2019-05-01T16:40:45.154Z,12.93
2019-05-01T16:43:15.052Z,14.53
2019-05-01T16:45:44.576Z,20.80
2019-05-01T16:48:14.032Z,28.73
2019-05-01T16:50:43.556Z,19.97
2019-05-01T16:53:13.135Z,20.03
2019-05-01T16:55:43.048Z,17.67
2019-05-01T16:58:15.022Z,14.47
2019-05-01T17:01:04.187Z,16.67
2019-05-01T17:03:44.229Z,20.47
2019-05-01T17:06:18.568Z,24.90
2019-05-01T17:09:00.388Z,15.67
2019-05-01T17:11:31.877Z,17.60
2019-05-01T17:14:01.454Z,14.90
2019-05-01T17:16:31.084Z,16.17
2019-05-01T17:19:00.579Z,15.03
2019-05-01T17:21:30.049Z,16.47
2019-05-01T17:23:59.651Z,14.00
2019-05-01T17:26:29.226Z,13.80
2019-05-01T17:28:58.687Z,15.10
2019-05-01T17:31:28.520Z,18.43
2019-05-01T17:33:58.037Z,13.60
2019-05-01T17:36:27.565Z,15.83
2019-05-01T17:38:57.022Z,18.87
2019-05-01T17:41:27.450Z,17.93
2019-05-01T17:43:57.808Z,14.53
2019-05-01T17:46:27.242Z,14.57
2019-05-01T17:48:56.758Z,15.53
2019-05-01T17:51:26.192Z,18.17
2019-05-01T17:53:55.714Z,15.20
2019-05-01T17:56:28.286Z,18.53
2019-05-01T17:58:59.285Z,17.57
2019-05-01T18:01:49.551Z,18.67
2019-05-01T18:04:33.318Z,14.60
2019-05-01T18:07:02.933Z,15.10
2019-05-01T18:09:32.444Z,14.40
2019-05-01T18:12:07.224Z,16.07
2019-05-01T18:14:36.724Z,15.83
2019-05-01T18:17:06.350Z,14.73
2019-05-01T18:19:35.833Z,18.57
2019-05-01T18:22:26.904Z,15.77
2019-05-01T18:25:14.021Z,16.93
2019-05-01T18:28:01.800Z,15.87
2019-05-01T18:30:36.174Z,20.57
2019-05-01T18:33:05.904Z,14.60
2019-05-01T18:35:35.618Z,15.57
2019-05-01T18:38:14.745Z,15.53
2019-05-01T18:40:49.761Z,14.17
2019-05-01T18:43:19.245Z,16.20
2019-05-01T18:45:50.917Z,16.97
2019-05-01T18:48:20.984Z,17.93
2019-05-01T18:50:54.671Z,18.00
2019-05-01T18:53:21.973Z,18.70
2019-05-01T18:55:51.534Z,19.40
2019-05-01T18:58:20.972Z,19.87
2019-05-01T19:00:50.907Z,16.77
2019-05-01T19:03:22.410Z,19.27
2019-05-01T19:05:51.748Z,23.33
2019-05-01T19:08:21.253Z,21.20
2019-05-01T19:10:50.778Z,21.97
2019-05-01T19:13:20.708Z,30.53
2019-05-01T19:15:50.317Z,22.10
2019-05-01T19:18:19.858Z,21.90
2019-05-01T19:20:59.269Z,20.43
2019-05-01T19:23:22.113Z,18.53
2019-05-01T19:25:51.931Z,18.73
2019-05-01T19:28:22.559Z,20.93
2019-05-01T19:30:52.107Z,19.73
2019-05-01T19:33:21.635Z,20.57
2019-05-01T19:35:51.155Z,22.63
2019-05-01T19:38:21.493Z,22.00
2019-05-01T19:40:50.948Z,26.57
2019-05-01T19:43:20.518Z,24.93
2019-05-01T19:45:49.968Z,23.07
2019-05-01T19:48:19.518Z,23.83
2019-05-01T19:50:49.640Z,24.70
2019-05-01T19:53:19.208Z,28.33
2019-05-01T19:55:48.989Z,27.03
2019-05-01T19:58:18.511Z,25.30
2019-05-01T20:00:55.889Z,25.47
2019-05-01T20:03:26.016Z,23.73
2019-05-01T20:05:59.678Z,24.40
2019-05-01T20:08:28.430Z,23.20
2019-05-01T20:10:57.979Z,23.83
2019-05-01T20:13:27.522Z,21.20
2019-05-01T20:15:56.987Z,28.20
2019-05-01T20:18:26.535Z,24.97
2019-05-01T20:20:55.994Z,22.43
2019-05-01T20:23:31.574Z,24.60
2019-05-01T20:25:58.626Z,20.93
2019-05-01T20:28:28.465Z,23.80
2019-05-01T20:30:58.202Z,25.73
2019-05-01T20:33:27.747Z,23.93
2019-05-01T20:36:00.536Z,21.30
2019-05-01T20:38:28.654Z,23.70
2019-05-01T20:40:58.259Z,27.70
2019-05-01T20:43:27.739Z,23.57
2019-05-01T20:45:57.301Z,24.47
2019-05-01T20:48:26.798Z,22.53
2019-05-01T20:50:56.313Z,22.50
2019-05-01T20:53:26.967Z,25.67
2019-05-01T20:56:03.008Z,23.87
2019-05-01T20:58:38.451Z,24.90
2019-05-01T21:01:07.939Z,23.27
2019-05-01T21:03:42.674Z,24.33
2019-05-01T21:06:24.337Z,23.50
2019-05-01T21:09:13.853Z,26.73
2019-05-01T21:11:47.389Z,25.33
2019-05-01T21:14:22.629Z,22.83
2019-05-01T21:16:49.388Z,23.70
2019-05-01T21:19:18.847Z,24.70
2019-05-01T21:21:48.291Z,24.60
2019-05-01T21:24:17.823Z,27.47
2019-05-01T21:26:47.338Z,25.57
2019-05-01T21:29:16.820Z,26.63
2019-05-01T21:31:46.329Z,23.50
2019-05-01T21:34:15.815Z,24.83
2019-05-01T21:36:47.366Z,22.50
2019-05-01T21:39:17.958Z,21.80
2019-05-01T21:41:47.656Z,22.53
2019-05-01T21:44:17.218Z,26.20
2019-05-01T21:46:46.840Z,28.53
2019-05-01T21:49:16.402Z,23.23
2019-05-01T21:51:46.354Z,23.90
2019-05-01T21:54:22.193Z,24.63
2019-05-01T21:56:51.694Z,25.97
2019-05-01T21:59:21.100Z,25.67
2019-05-01T22:01:50.644Z,26.83
2019-05-01T22:04:20.084Z,28.57
2019-05-01T22:06:51.986Z,23.40
2019-05-01T22:09:21.599Z,23.33
2019-05-01T22:11:51.030Z,24.23
2019-05-01T22:14:38.400Z,22.83
2019-05-01T22:17:14.013Z,23.70
2019-05-01T22:19:43.370Z,28.47
2019-05-01T22:22:19.279Z,24.40
2019-05-01T22:24:59.618Z,23.83
2019-05-01T22:27:34.835Z,27.83
2019-05-01T22:30:13.794Z,25.00
2019-05-01T22:32:46.951Z,25.00
2019-05-01T22:35:18.935Z,27.13
2019-05-01T22:37:48.395Z,28.50
2019-05-01T22:40:20.833Z,25.13
2019-05-01T22:42:50.182Z,24.30
2019-05-01T22:45:22.258Z,23.97
2019-05-01T22:47:52.200Z,26.50
2019-05-01T22:50:21.737Z,24.33
2019-05-01T22:52:51.286Z,24.93
2019-05-01T22:55:25.223Z,27.93
2019-05-01T22:57:51.723Z,25.63
2019-05-01T23:00:33.517Z,23.83
2019-05-01T23:03:05.568Z,29.37
2019-05-01T23:05:35.435Z,28.03
2019-05-01T23:08:04.881Z,28.47
2019-05-01T23:10:34.589Z,27.00
2019-05-01T23:13:04.131Z,27.17
2019-05-01T23:15:33.918Z,22.93
2019-05-01T23:18:03.414Z,25.73
2019-05-01T23:20:34.720Z,26.63
2019-05-01T23:23:03.888Z,25.30
2019-05-01T23:25:36.559Z,26.87
2019-05-01T23:28:06.075Z,23.50
2019-05-01T23:30:35.558Z,30.90
2019-05-01T23:33:04.999Z,23.07
2019-05-01T23:35:34.433Z,22.97
2019-05-01T23:38:03.896Z,23.17
2019-05-01T23:40:33.322Z,23.47
2019-05-01T23:43:02.703Z,24.30
2019-05-01T23:45:32.030Z,24.40
2019-05-01T23:48:01.433Z,24.53
2019-05-01T23:50:30.870Z,23.37
2019-05-01T23:53:00.233Z,22.53
2019-05-01T23:55:29.577Z,23.87
2019-05-01T23:57:59.023Z,24.97
